sensor_id;sensor_type;location;lat;lon;timestamp;P1;durP1;ratioP1;P2;durP2;ratioP2
20725;SDS011;10524;48.132;8.518;2024-03-02T00:02:14;28.52;;;17.00;;
20725;SDS011;10524;48.132;8.518;2024-03-02T00:04:40;26.25;;;15.80;;
20725;SDS011;10524;48.132;8.518;2024-03-02T00:07:09;27.77;;;16.40;;
20725;SDS011;10524;48.132;8.518;2024-03-02T00:09:35;27.42;;;16.67;;
20725;SDS011;10524;48.132;8.518;2024-03-02T00:12:01;27.88;;;16.50;;
20725;SDS011;10524;48.132;8.518;2024-03-02T00:14:30;28.73;;;17.55;;
20725;SDS011;10524;48.132;8.518;2024-03-02T00:16:57;27.58;;;17.35;;
20725;SDS011;10524;48.132;8.518;2024-03-02T00:19:24;27.70;;;16.88;;
20725;SDS011;10524;48.132;8.518;2024-03-02T00:21:50;28.75;;;16.98;;
20725;SDS011;10524;48.132;8.518;2024-03-02T00:26:45;28.38;;;16.70;;
20725;SDS011;10524;48.132;8.518;2024-03-02T00:29:11;29.95;;;17.27;;
20725;SDS011;10524;48.132;8.518;2024-03-02T00:31:41;31.42;;;18.00;;
20725;SDS011;10524;48.132;8.518;2024-03-02T00:34:07;31.75;;;17.40;;
20725;SDS011;10524;48.132;8.518;2024-03-02T00:36:32;31.77;;;18.08;;
20725;SDS011;10524;48.132;8.518;2024-03-02T00:38:58;29.95;;;17.13;;
20725;SDS011;10524;48.132;8.518;2024-03-02T00:41:26;32.42;;;17.92;;
20725;SDS011;10524;48.132;8.518;2024-03-02T00:44:00;35.10;;;18.58;;
20725;SDS011;10524;48.132;8.518;2024-03-02T00:46:34;33.08;;;19.02;;
20725;SDS011;10524;48.132;8.518;2024-03-02T00:49:26;30.63;;;17.40;;
20725;SDS011;10524;48.132;8.518;2024-03-02T00:51:52;36.03;;;19.05;;
20725;SDS011;10524;48.132;8.518;2024-03-02T00:54:19;36.65;;;19.23;;
20725;SDS011;10524;48.132;8.518;2024-03-02T00:56:51;36.47;;;20.20;;
20725;SDS011;10524;48.132;8.518;2024-03-02T00:59:20;37.22;;;19.77;;
20725;SDS011;10524;48.132;8.518;2024-03-02T01:01:47;37.33;;;18.67;;
20725;SDS011;10524;48.132;8.518;2024-03-02T01:04:15;34.22;;;17.58;;
20725;SDS011;10524;48.132;8.518;2024-03-02T01:06:44;34.50;;;19.02;;
20725;SDS011;10524;48.132;8.518;2024-03-02T01:09:10;36.38;;;18.77;;
20725;SDS011;10524;48.132;8.518;2024-03-02T01:11:37;34.17;;;18.35;;
20725;SDS011;10524;48.132;8.518;2024-03-02T01:14:03;35.67;;;19.05;;
20725;SDS011;10524;48.132;8.518;2024-03-02T01:16:29;38.38;;;19.80;;
20725;SDS011;10524;48.132;8.518;2024-03-02T01:18:55;38.47;;;19.75;;
20725;SDS011;10524;48.132;8.518;2024-03-02T01:21:21;37.55;;;19.67;;
20725;SDS011;10524;48.132;8.518;2024-03-02T01:23:46;35.97;;;19.35;;
20725;SDS011;10524;48.132;8.518;2024-03-02T01:26:12;36.95;;;18.88;;
20725;SDS011;10524;48.132;8.518;2024-03-02T01:28:38;36.00;;;18.20;;
20725;SDS011;10524;48.132;8.518;2024-03-02T01:31:04;40.45;;;20.65;;
20725;SDS011;10524;48.132;8.518;2024-03-02T01:33:30;38.13;;;19.42;;
20725;SDS011;10524;48.132;8.518;2024-03-02T01:35:55;39.45;;;19.08;;
20725;SDS011;10524;48.132;8.518;2024-03-02T01:38:21;42.85;;;20.38;;
20725;SDS011;10524;48.132;8.518;2024-03-02T01:40:47;42.22;;;19.85;;
20725;SDS011;10524;48.132;8.518;2024-03-02T01:43:13;36.42;;;18.67;;
20725;SDS011;10524;48.132;8.518;2024-03-02T01:45:38;41.20;;;19.38;;
20725;SDS011;10524;48.132;8.518;2024-03-02T01:48:05;39.40;;;19.10;;
20725;SDS011;10524;48.132;8.518;2024-03-02T01:50:32;33.85;;;17.75;;
20725;SDS011;10524;48.132;8.518;2024-03-02T01:52:58;32.00;;;16.65;;
20725;SDS011;10524;48.132;8.518;2024-03-02T01:55:25;33.33;;;17.55;;
20725;SDS011;10524;48.132;8.518;2024-03-02T01:57:52;34.78;;;16.83;;
20725;SDS011;10524;48.132;8.518;2024-03-02T02:00:19;44.13;;;19.95;;
20725;SDS011;10524;48.132;8.518;2024-03-02T02:02:49;50.80;;;21.67;;
20725;SDS011;10524;48.132;8.518;2024-03-02T02:05:15;56.58;;;23.70;;
20725;SDS011;10524;48.132;8.518;2024-03-02T02:07:41;59.05;;;23.17;;
20725;SDS011;10524;48.132;8.518;2024-03-02T02:10:08;56.90;;;24.02;;
20725;SDS011;10524;48.132;8.518;2024-03-02T02:12:35;58.92;;;23.63;;
20725;SDS011;10524;48.132;8.518;2024-03-02T02:15:01;52.45;;;22.00;;
20725;SDS011;10524;48.132;8.518;2024-03-02T02:17:28;58.25;;;24.02;;
20725;SDS011;10524;48.132;8.518;2024-03-02T02:19:53;52.28;;;22.05;;
20725;SDS011;10524;48.132;8.518;2024-03-02T02:22:19;53.00;;;21.10;;
20725;SDS011;10524;48.132;8.518;2024-03-02T02:24:45;55.10;;;21.60;;
20725;SDS011;10524;48.132;8.518;2024-03-02T02:27:11;61.70;;;23.77;;
20725;SDS011;10524;48.132;8.518;2024-03-02T02:29:39;63.60;;;24.40;;
20725;SDS011;10524;48.132;8.518;2024-03-02T02:32:05;55.15;;;22.50;;
20725;SDS011;10524;48.132;8.518;2024-03-02T02:34:31;60.78;;;23.33;;
20725;SDS011;10524;48.132;8.518;2024-03-02T02:36:56;68.45;;;24.45;;
20725;SDS011;10524;48.132;8.518;2024-03-02T02:39:22;65.15;;;24.95;;
20725;SDS011;10524;48.132;8.518;2024-03-02T02:41:48;68.13;;;24.90;;
20725;SDS011;10524;48.132;8.518;2024-03-02T02:44:14;62.33;;;23.52;;
20725;SDS011;10524;48.132;8.518;2024-03-02T02:46:40;49.90;;;21.60;;
20725;SDS011;10524;48.132;8.518;2024-03-02T02:49:06;51.70;;;21.27;;
20725;SDS011;10524;48.132;8.518;2024-03-02T02:51:32;53.10;;;21.63;;
20725;SDS011;10524;48.132;8.518;2024-03-02T02:53:58;62.00;;;24.73;;
20725;SDS011;10524;48.132;8.518;2024-03-02T02:56:23;68.00;;;25.23;;
20725;SDS011;10524;48.132;8.518;2024-03-02T02:58:49;77.53;;;26.48;;
20725;SDS011;10524;48.132;8.518;2024-03-02T03:01:16;69.57;;;24.65;;
20725;SDS011;10524;48.132;8.518;2024-03-02T03:03:45;78.80;;;26.85;;
20725;SDS011;10524;48.132;8.518;2024-03-02T03:06:11;84.60;;;28.00;;
20725;SDS011;10524;48.132;8.518;2024-03-02T03:08:37;81.60;;;28.17;;
20725;SDS011;10524;48.132;8.518;2024-03-02T03:11:04;77.43;;;27.33;;
20725;SDS011;10524;48.132;8.518;2024-03-02T03:13:33;81.18;;;26.55;;
20725;SDS011;10524;48.132;8.518;2024-03-02T03:15:59;72.43;;;26.20;;
20725;SDS011;10524;48.132;8.518;2024-03-02T03:18:25;83.15;;;27.27;;
20725;SDS011;10524;48.132;8.518;2024-03-02T03:20:51;79.45;;;27.52;;
20725;SDS011;10524;48.132;8.518;2024-03-02T03:23:16;80.80;;;27.10;;
20725;SDS011;10524;48.132;8.518;2024-03-02T03:25:42;83.82;;;27.27;;
20725;SDS011;10524;48.132;8.518;2024-03-02T03:28:09;77.35;;;26.35;;
20725;SDS011;10524;48.132;8.518;2024-03-02T03:30:38;77.80;;;27.45;;
20725;SDS011;10524;48.132;8.518;2024-03-02T03:33:05;82.82;;;27.65;;
20725;SDS011;10524;48.132;8.518;2024-03-02T03:35:31;85.63;;;27.75;;
20725;SDS011;10524;48.132;8.518;2024-03-02T03:37:57;81.60;;;27.25;;
20725;SDS011;10524;48.132;8.518;2024-03-02T03:40:23;76.28;;;26.33;;
20725;SDS011;10524;48.132;8.518;2024-03-02T03:42:49;71.03;;;24.48;;
20725;SDS011;10524;48.132;8.518;2024-03-02T03:45:15;69.18;;;24.42;;
20725;SDS011;10524;48.132;8.518;2024-03-02T03:47:41;69.05;;;25.08;;
20725;SDS011;10524;48.132;8.518;2024-03-02T03:50:07;69.03;;;24.08;;
20725;SDS011;10524;48.132;8.518;2024-03-02T03:52:33;81.88;;;26.23;;
20725;SDS011;10524;48.132;8.518;2024-03-02T03:54:59;82.53;;;26.50;;
20725;SDS011;10524;48.132;8.518;2024-03-02T03:57:25;83.53;;;25.55;;
20725;SDS011;10524;48.132;8.518;2024-03-02T03:59:52;79.97;;;26.88;;
20725;SDS011;10524;48.132;8.518;2024-03-02T04:02:18;86.80;;;27.70;;
20725;SDS011;10524;48.132;8.518;2024-03-02T04:04:44;86.00;;;27.67;;
20725;SDS011;10524;48.132;8.518;2024-03-02T04:07:10;82.38;;;27.48;;
20725;SDS011;10524;48.132;8.518;2024-03-02T04:09:35;88.30;;;27.20;;
20725;SDS011;10524;48.132;8.518;2024-03-02T04:12:01;87.22;;;27.95;;
20725;SDS011;10524;48.132;8.518;2024-03-02T04:14:27;86.90;;;29.20;;
20725;SDS011;10524;48.132;8.518;2024-03-02T04:16:53;85.50;;;28.98;;
20725;SDS011;10524;48.132;8.518;2024-03-02T04:19:18;87.68;;;28.58;;
20725;SDS011;10524;48.132;8.518;2024-03-02T04:21:44;87.30;;;30.20;;
20725;SDS011;10524;48.132;8.518;2024-03-02T04:24:10;89.13;;;29.80;;
20725;SDS011;10524;48.132;8.518;2024-03-02T04:26:35;96.07;;;30.73;;
20725;SDS011;10524;48.132;8.518;2024-03-02T04:29:01;95.88;;;30.75;;
20725;SDS011;10524;48.132;8.518;2024-03-02T04:31:27;93.70;;;30.42;;
20725;SDS011;10524;48.132;8.518;2024-03-02T04:33:53;86.55;;;30.02;;
20725;SDS011;10524;48.132;8.518;2024-03-02T04:36:19;91.68;;;30.23;;
20725;SDS011;10524;48.132;8.518;2024-03-02T04:38:46;93.55;;;29.92;;
20725;SDS011;10524;48.132;8.518;2024-03-02T04:41:12;100.20;;;30.05;;
20725;SDS011;10524;48.132;8.518;2024-03-02T04:43:37;96.82;;;31.67;;
20725;SDS011;10524;48.132;8.518;2024-03-02T04:46:04;91.72;;;30.55;;
20725;SDS011;10524;48.132;8.518;2024-03-02T04:48:32;94.00;;;30.65;;
20725;SDS011;10524;48.132;8.518;2024-03-02T04:50:58;91.38;;;30.80;;
20725;SDS011;10524;48.132;8.518;2024-03-02T04:53:23;95.88;;;33.10;;
20725;SDS011;10524;48.132;8.518;2024-03-02T04:55:49;94.57;;;31.02;;
20725;SDS011;10524;48.132;8.518;2024-03-02T04:58:21;91.30;;;31.13;;
20725;SDS011;10524;48.132;8.518;2024-03-02T05:00:46;97.25;;;31.05;;
20725;SDS011;10524;48.132;8.518;2024-03-02T05:03:12;102.97;;;32.72;;
20725;SDS011;10524;48.132;8.518;2024-03-02T05:05:38;94.95;;;31.73;;
20725;SDS011;10524;48.132;8.518;2024-03-02T05:08:04;80.72;;;29.20;;
20725;SDS011;10524;48.132;8.518;2024-03-02T05:10:30;88.25;;;30.15;;
20725;SDS011;10524;48.132;8.518;2024-03-02T05:12:56;82.50;;;29.90;;
20725;SDS011;10524;48.132;8.518;2024-03-02T05:15:22;73.65;;;28.15;;
20725;SDS011;10524;48.132;8.518;2024-03-02T05:17:48;73.20;;;27.83;;
20725;SDS011;10524;48.132;8.518;2024-03-02T05:20:14;70.75;;;27.30;;
20725;SDS011;10524;48.132;8.518;2024-03-02T05:22:39;74.57;;;27.95;;
20725;SDS011;10524;48.132;8.518;2024-03-02T05:25:05;65.63;;;26.17;;
20725;SDS011;10524;48.132;8.518;2024-03-02T05:27:31;70.75;;;27.25;;
20725;SDS011;10524;48.132;8.518;2024-03-02T05:29:58;67.18;;;26.85;;
20725;SDS011;10524;48.132;8.518;2024-03-02T05:32:24;67.60;;;26.20;;
20725;SDS011;10524;48.132;8.518;2024-03-02T05:34:50;65.28;;;26.77;;
20725;SDS011;10524;48.132;8.518;2024-03-02T05:37:16;68.50;;;27.20;;
20725;SDS011;10524;48.132;8.518;2024-03-02T05:39:43;70.38;;;26.42;;
20725;SDS011;10524;48.132;8.518;2024-03-02T05:42:09;70.82;;;27.60;;
20725;SDS011;10524;48.132;8.518;2024-03-02T05:44:35;73.32;;;27.25;;
20725;SDS011;10524;48.132;8.518;2024-03-02T05:47:01;68.45;;;27.77;;
20725;SDS011;10524;48.132;8.518;2024-03-02T05:49:28;63.72;;;26.25;;
20725;SDS011;10524;48.132;8.518;2024-03-02T05:51:54;70.43;;;27.05;;
20725;SDS011;10524;48.132;8.518;2024-03-02T05:54:19;72.05;;;27.75;;
20725;SDS011;10524;48.132;8.518;2024-03-02T05:56:45;66.22;;;27.27;;
20725;SDS011;10524;48.132;8.518;2024-03-02T05:59:11;69.47;;;27.02;;
20725;SDS011;10524;48.132;8.518;2024-03-02T06:01:42;71.63;;;26.30;;
20725;SDS011;10524;48.132;8.518;2024-03-02T06:04:09;73.90;;;27.83;;
20725;SDS011;10524;48.132;8.518;2024-03-02T06:06:39;73.40;;;26.75;;
20725;SDS011;10524;48.132;8.518;2024-03-02T06:09:05;86.97;;;29.52;;
20725;SDS011;10524;48.132;8.518;2024-03-02T06:11:33;81.53;;;28.23;;
20725;SDS011;10524;48.132;8.518;2024-03-02T06:14:06;83.88;;;29.73;;
20725;SDS011;10524;48.132;8.518;2024-03-02T06:16:33;95.72;;;30.48;;
20725;SDS011;10524;48.132;8.518;2024-03-02T06:18:59;87.82;;;30.77;;
20725;SDS011;10524;48.132;8.518;2024-03-02T06:21:26;88.15;;;30.35;;
20725;SDS011;10524;48.132;8.518;2024-03-02T06:23:52;101.55;;;31.95;;
20725;SDS011;10524;48.132;8.518;2024-03-02T06:26:19;104.45;;;32.97;;
20725;SDS011;10524;48.132;8.518;2024-03-02T06:28:45;108.80;;;34.33;;
20725;SDS011;10524;48.132;8.518;2024-03-02T06:31:11;111.13;;;34.63;;
20725;SDS011;10524;48.132;8.518;2024-03-02T06:33:37;96.43;;;32.78;;
20725;SDS011;10524;48.132;8.518;2024-03-02T06:36:03;97.35;;;33.28;;
20725;SDS011;10524;48.132;8.518;2024-03-02T06:38:29;98.30;;;32.03;;
20725;SDS011;10524;48.132;8.518;2024-03-02T06:40:58;87.38;;;30.35;;
20725;SDS011;10524;48.132;8.518;2024-03-02T06:43:24;89.45;;;32.33;;
20725;SDS011;10524;48.132;8.518;2024-03-02T06:45:53;94.07;;;30.73;;
20725;SDS011;10524;48.132;8.518;2024-03-02T06:48:19;74.88;;;28.25;;
20725;SDS011;10524;48.132;8.518;2024-03-02T06:50:48;87.90;;;29.30;;
20725;SDS011;10524;48.132;8.518;2024-03-02T06:53:14;95.82;;;31.38;;
20725;SDS011;10524;48.132;8.518;2024-03-02T06:55:43;110.07;;;32.22;;
20725;SDS011;10524;48.132;8.518;2024-03-02T06:58:11;106.28;;;33.58;;
20725;SDS011;10524;48.132;8.518;2024-03-02T07:00:43;109.25;;;33.00;;
20725;SDS011;10524;48.132;8.518;2024-03-02T07:03:09;123.60;;;35.92;;
20725;SDS011;10524;48.132;8.518;2024-03-02T07:05:35;116.75;;;35.20;;
20725;SDS011;10524;48.132;8.518;2024-03-02T07:08:01;113.00;;;35.85;;
20725;SDS011;10524;48.132;8.518;2024-03-02T07:10:28;86.97;;;31.75;;
20725;SDS011;10524;48.132;8.518;2024-03-02T07:12:53;74.78;;;30.08;;
20725;SDS011;10524;48.132;8.518;2024-03-02T07:15:19;71.00;;;29.63;;
20725;SDS011;10524;48.132;8.518;2024-03-02T07:17:50;68.80;;;29.50;;
20725;SDS011;10524;48.132;8.518;2024-03-02T07:20:16;64.97;;;29.52;;
20725;SDS011;10524;48.132;8.518;2024-03-02T07:22:42;55.08;;;27.20;;
20725;SDS011;10524;48.132;8.518;2024-03-02T07:25:08;51.22;;;25.63;;
20725;SDS011;10524;48.132;8.518;2024-03-02T07:27:34;45.60;;;24.90;;
20725;SDS011;10524;48.132;8.518;2024-03-02T07:30:01;39.33;;;23.33;;
20725;SDS011;10524;48.132;8.518;2024-03-02T07:32:28;33.97;;;21.33;;
20725;SDS011;10524;48.132;8.518;2024-03-02T07:34:53;27.27;;;18.52;;
20725;SDS011;10524;48.132;8.518;2024-03-02T07:37:21;26.08;;;18.02;;
20725;SDS011;10524;48.132;8.518;2024-03-02T07:39:47;24.00;;;16.45;;
20725;SDS011;10524;48.132;8.518;2024-03-02T07:42:13;19.95;;;14.82;;
20725;SDS011;10524;48.132;8.518;2024-03-02T07:44:39;21.88;;;14.95;;
20725;SDS011;10524;48.132;8.518;2024-03-02T07:47:05;20.52;;;15.35;;
20725;SDS011;10524;48.132;8.518;2024-03-02T07:49:31;19.30;;;14.48;;
20725;SDS011;10524;48.132;8.518;2024-03-02T07:51:57;21.27;;;15.32;;
20725;SDS011;10524;48.132;8.518;2024-03-02T07:54:23;18.42;;;13.40;;
20725;SDS011;10524;48.132;8.518;2024-03-02T07:56:49;16.92;;;13.63;;
20725;SDS011;10524;48.132;8.518;2024-03-02T07:59:15;17.67;;;13.25;;
20725;SDS011;10524;48.132;8.518;2024-03-02T08:01:41;16.90;;;12.73;;
20725;SDS011;10524;48.132;8.518;2024-03-02T08:04:07;16.42;;;12.55;;
20725;SDS011;10524;48.132;8.518;2024-03-02T08:06:32;15.15;;;12.13;;
20725;SDS011;10524;48.132;8.518;2024-03-02T08:08:59;16.02;;;12.23;;
20725;SDS011;10524;48.132;8.518;2024-03-02T08:11:26;15.05;;;11.70;;
20725;SDS011;10524;48.132;8.518;2024-03-02T08:13:52;13.95;;;11.35;;
20725;SDS011;10524;48.132;8.518;2024-03-02T08:16:20;13.07;;;10.57;;
20725;SDS011;10524;48.132;8.518;2024-03-02T08:18:50;12.80;;;10.07;;
20725;SDS011;10524;48.132;8.518;2024-03-02T08:21:17;14.85;;;11.35;;
20725;SDS011;10524;48.132;8.518;2024-03-02T08:23:43;12.60;;;11.00;;
20725;SDS011;10524;48.132;8.518;2024-03-02T08:26:09;11.98;;;10.60;;
20725;SDS011;10524;48.132;8.518;2024-03-02T08:28:36;10.55;;;9.40;;
20725;SDS011;10524;48.132;8.518;2024-03-02T08:31:07;10.98;;;9.70;;
20725;SDS011;10524;48.132;8.518;2024-03-02T08:33:33;10.57;;;9.18;;
20725;SDS011;10524;48.132;8.518;2024-03-02T08:36:00;9.73;;;8.60;;
20725;SDS011;10524;48.132;8.518;2024-03-02T08:38:26;10.63;;;9.32;;
20725;SDS011;10524;48.132;8.518;2024-03-02T08:40:51;9.98;;;8.75;;
20725;SDS011;10524;48.132;8.518;2024-03-02T08:43:18;11.95;;;9.18;;
20725;SDS011;10524;48.132;8.518;2024-03-02T08:45:45;10.75;;;9.00;;
20725;SDS011;10524;48.132;8.518;2024-03-02T08:48:10;10.60;;;8.68;;
20725;SDS011;10524;48.132;8.518;2024-03-02T08:50:36;10.10;;;8.80;;
20725;SDS011;10524;48.132;8.518;2024-03-02T08:53:05;9.70;;;8.25;;
20725;SDS011;10524;48.132;8.518;2024-03-02T08:55:31;9.38;;;8.07;;
20725;SDS011;10524;48.132;8.518;2024-03-02T08:57:57;10.68;;;8.77;;
20725;SDS011;10524;48.132;8.518;2024-03-02T09:00:23;9.27;;;8.05;;
20725;SDS011;10524;48.132;8.518;2024-03-02T09:02:49;9.80;;;8.02;;
20725;SDS011;10524;48.132;8.518;2024-03-02T09:05:15;9.40;;;8.18;;
20725;SDS011;10524;48.132;8.518;2024-03-02T09:07:41;9.45;;;8.00;;
20725;SDS011;10524;48.132;8.518;2024-03-02T09:10:07;8.98;;;7.78;;
20725;SDS011;10524;48.132;8.518;2024-03-02T09:12:34;9.32;;;7.25;;
20725;SDS011;10524;48.132;8.518;2024-03-02T09:15:00;8.98;;;7.25;;
20725;SDS011;10524;48.132;8.518;2024-03-02T09:17:28;9.25;;;7.20;;
20725;SDS011;10524;48.132;8.518;2024-03-02T09:19:54;8.77;;;7.53;;
20725;SDS011;10524;48.132;8.518;2024-03-02T09:22:19;9.18;;;7.47;;
20725;SDS011;10524;48.132;8.518;2024-03-02T09:24:45;9.02;;;7.00;;
20725;SDS011;10524;48.132;8.518;2024-03-02T09:27:11;9.35;;;7.13;;
20725;SDS011;10524;48.132;8.518;2024-03-02T09:29:37;7.57;;;6.35;;
20725;SDS011;10524;48.132;8.518;2024-03-02T09:32:04;7.00;;;6.30;;
20725;SDS011;10524;48.132;8.518;2024-03-02T09:34:31;9.45;;;6.70;;
20725;SDS011;10524;48.132;8.518;2024-03-02T09:36:57;7.93;;;6.80;;
20725;SDS011;10524;48.132;8.518;2024-03-02T09:39:23;7.28;;;6.25;;
20725;SDS011;10524;48.132;8.518;2024-03-02T09:41:50;7.55;;;6.10;;
20725;SDS011;10524;48.132;8.518;2024-03-02T09:44:16;7.22;;;5.75;;
20725;SDS011;10524;48.132;8.518;2024-03-02T09:46:42;6.35;;;5.68;;
20725;SDS011;10524;48.132;8.518;2024-03-02T09:49:12;7.18;;;5.38;;
20725;SDS011;10524;48.132;8.518;2024-03-02T09:51:37;6.40;;;5.30;;
20725;SDS011;10524;48.132;8.518;2024-03-02T09:54:04;5.82;;;5.22;;
20725;SDS011;10524;48.132;8.518;2024-03-02T09:56:32;6.68;;;5.55;;
20725;SDS011;10524;48.132;8.518;2024-03-02T09:58:58;6.25;;;5.25;;
20725;SDS011;10524;48.132;8.518;2024-03-02T10:01:24;6.88;;;5.88;;
20725;SDS011;10524;48.132;8.518;2024-03-02T10:03:50;7.20;;;5.40;;
20725;SDS011;10524;48.132;8.518;2024-03-02T10:08:49;8.07;;;5.50;;
20725;SDS011;10524;48.132;8.518;2024-03-02T10:11:25;7.53;;;5.55;;
20725;SDS011;10524;48.132;8.518;2024-03-02T10:14:12;6.57;;;5.30;;
20725;SDS011;10524;48.132;8.518;2024-03-02T10:19:18;7.13;;;5.55;;
20725;SDS011;10524;48.132;8.518;2024-03-02T10:21:52;6.28;;;5.32;;
20725;SDS011;10524;48.132;8.518;2024-03-02T10:24:23;6.50;;;5.22;;
20725;SDS011;10524;48.132;8.518;2024-03-02T10:26:49;6.65;;;5.35;;
20725;SDS011;10524;48.132;8.518;2024-03-02T10:29:15;7.60;;;5.60;;
20725;SDS011;10524;48.132;8.518;2024-03-02T10:31:42;7.60;;;5.53;;
20725;SDS011;10524;48.132;8.518;2024-03-02T10:34:11;6.88;;;5.63;;
20725;SDS011;10524;48.132;8.518;2024-03-02T10:36:41;9.50;;;7.35;;
20725;SDS011;10524;48.132;8.518;2024-03-02T10:39:08;7.20;;;6.03;;
20725;SDS011;10524;48.132;8.518;2024-03-02T10:41:37;10.18;;;5.18;;
20725;SDS011;10524;48.132;8.518;2024-03-02T10:44:07;5.82;;;4.60;;
20725;SDS011;10524;48.132;8.518;2024-03-02T10:46:35;5.43;;;4.22;;
20725;SDS011;10524;48.132;8.518;2024-03-02T10:49:02;5.68;;;4.25;;
20725;SDS011;10524;48.132;8.518;2024-03-02T10:51:30;4.50;;;3.65;;
20725;SDS011;10524;48.132;8.518;2024-03-02T10:53:57;4.65;;;4.05;;
20725;SDS011;10524;48.132;8.518;2024-03-02T10:56:32;5.18;;;4.10;;
20725;SDS011;10524;48.132;8.518;2024-03-02T11:01:59;4.30;;;3.80;;
20725;SDS011;10524;48.132;8.518;2024-03-02T11:04:27;4.90;;;3.70;;
20725;SDS011;10524;48.132;8.518;2024-03-02T11:07:15;4.70;;;3.60;;
20725;SDS011;10524;48.132;8.518;2024-03-02T11:09:45;4.10;;;3.33;;
20725;SDS011;10524;48.132;8.518;2024-03-02T11:12:19;5.65;;;3.28;;
20725;SDS011;10524;48.132;8.518;2024-03-02T11:14:51;5.35;;;3.22;;
20725;SDS011;10524;48.132;8.518;2024-03-02T11:17:17;3.22;;;2.80;;
20725;SDS011;10524;48.132;8.518;2024-03-02T11:19:44;3.88;;;3.30;;
20725;SDS011;10524;48.132;8.518;2024-03-02T11:22:11;4.13;;;3.40;;
20725;SDS011;10524;48.132;8.518;2024-03-02T11:24:38;2.95;;;2.65;;
20725;SDS011;10524;48.132;8.518;2024-03-02T11:27:07;5.10;;;3.90;;
20725;SDS011;10524;48.132;8.518;2024-03-02T11:32:05;3.03;;;2.60;;
20725;SDS011;10524;48.132;8.518;2024-03-02T11:34:41;5.03;;;4.15;;
20725;SDS011;10524;48.132;8.518;2024-03-02T11:37:10;9.32;;;7.03;;
20725;SDS011;10524;48.132;8.518;2024-03-02T11:39:37;7.45;;;5.53;;
20725;SDS011;10524;48.132;8.518;2024-03-02T11:42:05;4.03;;;3.53;;
20725;SDS011;10524;48.132;8.518;2024-03-02T11:44:34;1.73;;;1.60;;
20725;SDS011;10524;48.132;8.518;2024-03-02T11:47:02;5.82;;;4.25;;
20725;SDS011;10524;48.132;8.518;2024-03-02T11:49:39;3.03;;;2.13;;
20725;SDS011;10524;48.132;8.518;2024-03-02T11:52:05;2.17;;;1.80;;
20725;SDS011;10524;48.132;8.518;2024-03-02T11:54:33;2.25;;;1.75;;
20725;SDS011;10524;48.132;8.518;2024-03-02T11:57:04;2.35;;;1.65;;
20725;SDS011;10524;48.132;8.518;2024-03-02T11:59:31;1.83;;;1.63;;
20725;SDS011;10524;48.132;8.518;2024-03-02T12:01:57;3.00;;;1.85;;
20725;SDS011;10524;48.132;8.518;2024-03-02T12:04:24;1.95;;;1.77;;
20725;SDS011;10524;48.132;8.518;2024-03-02T12:06:54;2.65;;;1.80;;
20725;SDS011;10524;48.132;8.518;2024-03-02T12:09:21;2.78;;;1.55;;
20725;SDS011;10524;48.132;8.518;2024-03-02T12:11:47;2.38;;;1.80;;
20725;SDS011;10524;48.132;8.518;2024-03-02T12:14:13;2.00;;;1.70;;
20725;SDS011;10524;48.132;8.518;2024-03-02T12:16:38;3.15;;;2.53;;
20725;SDS011;10524;48.132;8.518;2024-03-02T12:19:08;3.97;;;2.90;;
20725;SDS011;10524;48.132;8.518;2024-03-02T12:21:34;4.97;;;3.72;;
20725;SDS011;10524;48.132;8.518;2024-03-02T12:24:01;6.05;;;4.28;;
20725;SDS011;10524;48.132;8.518;2024-03-02T12:26:27;2.70;;;2.30;;
20725;SDS011;10524;48.132;8.518;2024-03-02T12:28:53;3.63;;;2.60;;
20725;SDS011;10524;48.132;8.518;2024-03-02T12:31:19;2.60;;;2.30;;
20725;SDS011;10524;48.132;8.518;2024-03-02T12:33:46;3.38;;;2.42;;
20725;SDS011;10524;48.132;8.518;2024-03-02T12:36:13;2.40;;;2.20;;
20725;SDS011;10524;48.132;8.518;2024-03-02T12:38:43;4.07;;;2.25;;
20725;SDS011;10524;48.132;8.518;2024-03-02T12:41:09;2.20;;;1.55;;
20725;SDS011;10524;48.132;8.518;2024-03-02T12:43:35;2.28;;;1.80;;
20725;SDS011;10524;48.132;8.518;2024-03-02T12:46:03;6.43;;;2.30;;
20725;SDS011;10524;48.132;8.518;2024-03-02T12:48:29;2.63;;;2.30;;
20725;SDS011;10524;48.132;8.518;2024-03-02T12:50:54;2.63;;;2.13;;
20725;SDS011;10524;48.132;8.518;2024-03-02T12:53:21;2.45;;;2.10;;
20725;SDS011;10524;48.132;8.518;2024-03-02T12:55:47;2.72;;;1.80;;
20725;SDS011;10524;48.132;8.518;2024-03-02T12:58:18;2.90;;;1.52;;
20725;SDS011;10524;48.132;8.518;2024-03-02T13:00:46;1.83;;;1.50;;
20725;SDS011;10524;48.132;8.518;2024-03-02T13:03:12;2.47;;;1.90;;
20725;SDS011;10524;48.132;8.518;2024-03-02T13:05:39;1.88;;;1.50;;
20725;SDS011;10524;48.132;8.518;2024-03-02T13:08:06;2.30;;;1.90;;
20725;SDS011;10524;48.132;8.518;2024-03-02T13:10:32;3.45;;;1.77;;
20725;SDS011;10524;48.132;8.518;2024-03-02T13:12:58;2.33;;;1.60;;
20725;SDS011;10524;48.132;8.518;2024-03-02T13:15:26;2.25;;;1.50;;
20725;SDS011;10524;48.132;8.518;2024-03-02T13:18:00;1.77;;;1.33;;
20725;SDS011;10524;48.132;8.518;2024-03-02T13:20:32;1.70;;;1.20;;
20725;SDS011;10524;48.132;8.518;2024-03-02T13:22:58;2.20;;;1.75;;
20725;SDS011;10524;48.132;8.518;2024-03-02T13:25:24;1.95;;;1.20;;
20725;SDS011;10524;48.132;8.518;2024-03-02T13:27:49;2.10;;;1.40;;
20725;SDS011;10524;48.132;8.518;2024-03-02T13:30:16;2.95;;;1.30;;
20725;SDS011;10524;48.132;8.518;2024-03-02T13:32:43;2.03;;;1.70;;
20725;SDS011;10524;48.132;8.518;2024-03-02T13:35:09;2.53;;;1.40;;
20725;SDS011;10524;48.132;8.518;2024-03-02T13:37:36;1.92;;;1.40;;
20725;SDS011;10524;48.132;8.518;2024-03-02T13:40:02;2.33;;;1.60;;
20725;SDS011;10524;48.132;8.518;2024-03-02T13:42:30;2.85;;;1.52;;
20725;SDS011;10524;48.132;8.518;2024-03-02T13:44:56;1.73;;;1.50;;
20725;SDS011;10524;48.132;8.518;2024-03-02T13:47:22;2.28;;;1.60;;
20725;SDS011;10524;48.132;8.518;2024-03-02T13:49:48;3.03;;;1.80;;
20725;SDS011;10524;48.132;8.518;2024-03-02T13:52:14;2.05;;;1.80;;
20725;SDS011;10524;48.132;8.518;2024-03-02T13:54:44;2.72;;;1.73;;
20725;SDS011;10524;48.132;8.518;2024-03-02T13:57:11;2.92;;;1.60;;
20725;SDS011;10524;48.132;8.518;2024-03-02T13:59:38;2.25;;;1.85;;
20725;SDS011;10524;48.132;8.518;2024-03-02T14:02:04;2.67;;;1.90;;
20725;SDS011;10524;48.132;8.518;2024-03-02T14:04:31;2.40;;;1.80;;
20725;SDS011;10524;48.132;8.518;2024-03-02T14:06:58;2.45;;;1.70;;
20725;SDS011;10524;48.132;8.518;2024-03-02T14:09:24;2.42;;;1.60;;
20725;SDS011;10524;48.132;8.518;2024-03-02T14:11:52;2.55;;;1.70;;
20725;SDS011;10524;48.132;8.518;2024-03-02T14:14:21;2.20;;;1.80;;
20725;SDS011;10524;48.132;8.518;2024-03-02T14:16:48;1.67;;;1.55;;
20725;SDS011;10524;48.132;8.518;2024-03-02T14:19:14;2.55;;;1.73;;
20725;SDS011;10524;48.132;8.518;2024-03-02T14:21:40;3.17;;;1.70;;
20725;SDS011;10524;48.132;8.518;2024-03-02T14:24:06;3.53;;;1.83;;
20725;SDS011;10524;48.132;8.518;2024-03-02T14:26:32;2.38;;;1.48;;
20725;SDS011;10524;48.132;8.518;2024-03-02T14:28:59;1.85;;;1.30;;
20725;SDS011;10524;48.132;8.518;2024-03-02T14:31:27;1.38;;;1.25;;
20725;SDS011;10524;48.132;8.518;2024-03-02T14:33:53;2.13;;;1.10;;
20725;SDS011;10524;48.132;8.518;2024-03-02T14:36:20;2.33;;;1.00;;
20725;SDS011;10524;48.132;8.518;2024-03-02T14:38:46;1.63;;;1.20;;
20725;SDS011;10524;48.132;8.518;2024-03-02T14:41:13;3.03;;;1.10;;
20725;SDS011;10524;48.132;8.518;2024-03-02T14:43:39;1.02;;;0.90;;